sensor_id;sensor_type;location;lat;lon;timestamp;pressure;altitude;pressure_sealevel;temperature;humidity
5146;BME280;2591;48.144;15.152;2022-08-16T00:00:15;74201.00;;;-144.65;85.82
5146;BME280;2591;48.144;15.152;2022-08-16T00:02:50;74196.94;;;-144.65;84.10
5146;BME280;2591;48.144;15.152;2022-08-16T00:05:20;74194.91;;;-144.65;84.96
5146;BME280;2591;48.144;15.152;2022-08-16T00:07:49;74209.16;;;-144.65;86.88
5146;BME280;2591;48.144;15.152;2022-08-16T00:10:23;74227.50;;;-144.65;88.40
5146;BME280;2591;48.144;15.152;2022-08-16T00:12:54;74243.81;;;-144.65;90.80
5146;BME280;2591;48.144;15.152;2022-08-16T00:15:27;74256.03;;;-144.65;92.62
5146;BME280;2591;48.144;15.152;2022-08-16T00:18:18;74274.38;;;-144.65;96.84
5146;BME280;2591;48.144;15.152;2022-08-16T00:20:55;74296.78;;;-144.65;100.00
5146;BME280;2591;48.144;15.152;2022-08-16T00:23:23;74317.16;;;-144.65;100.00
5146;BME280;2591;48.144;15.152;2022-08-16T00:26:06;74337.53;;;-144.65;100.00
5146;BME280;2591;48.144;15.152;2022-08-16T00:28:55;74339.59;;;-144.65;100.00
5146;BME280;2591;48.144;15.152;2022-08-16T00:31:24;74349.78;;;-144.65;100.00
5146;BME280;2591;48.144;15.152;2022-08-16T00:34:14;74364.03;;;-144.65;100.00
5146;BME280;2591;48.144;15.152;2022-08-16T00:36:44;74366.06;;;-144.65;100.00
5146;BME280;2591;48.144;15.152;2022-08-16T00:39:13;74382.38;;;-144.65;100.00
5146;BME280;2591;48.144;15.152;2022-08-16T00:41:43;74384.41;;;-144.65;100.00
5146;BME280;2591;48.144;15.152;2022-08-16T00:44:12;74390.53;;;-144.65;100.00
5146;BME280;2591;48.144;15.152;2022-08-16T00:46:49;74390.53;;;-144.65;100.00
5146;BME280;2591;48.144;15.152;2022-08-16T00:49:34;74394.59;;;-144.65;100.00
5146;BME280;2591;48.144;15.152;2022-08-16T00:52:11;74398.69;;;-144.65;100.00
5146;BME280;2591;48.144;15.152;2022-08-16T00:54:56;74400.72;;;-144.65;100.00
5146;BME280;2591;48.144;15.152;2022-08-16T00:57:25;74402.75;;;-144.65;100.00
5146;BME280;2591;48.144;15.152;2022-08-16T01:00:14;74406.81;;;-144.65;100.00
5146;BME280;2591;48.144;15.152;2022-08-16T01:02:45;74417.00;;;-144.65;100.00
5146;BME280;2591;48.144;15.152;2022-08-16T01:05:16;74414.97;;;-144.65;100.00
5146;BME280;2591;48.144;15.152;2022-08-16T01:07:51;74410.91;;;-144.65;100.00
5146;BME280;2591;48.144;15.152;2022-08-16T01:10:20;74410.91;;;-144.65;100.00
5146;BME280;2591;48.144;15.152;2022-08-16T01:13:03;74419.06;;;-144.65;100.00
5146;BME280;2591;48.144;15.152;2022-08-16T01:15:32;74425.16;;;-144.65;100.00
5146;BME280;2591;48.144;15.152;2022-08-16T01:18:03;74425.16;;;-144.65;100.00
5146;BME280;2591;48.144;15.152;2022-08-16T01:20:38;74421.09;;;-144.65;100.00
5146;BME280;2591;48.144;15.152;2022-08-16T01:23:13;74427.22;;;-144.65;100.00
5146;BME280;2591;48.144;15.152;2022-08-16T01:25:48;74425.16;;;-144.65;100.00
5146;BME280;2591;48.144;15.152;2022-08-16T01:28:38;74419.06;;;-144.65;100.00
5146;BME280;2591;48.144;15.152;2022-08-16T01:31:12;74427.22;;;-144.65;100.00
5146;BME280;2591;48.144;15.152;2022-08-16T01:33:41;74427.22;;;-144.65;100.00
5146;BME280;2591;48.144;15.152;2022-08-16T01:36:10;74435.34;;;-144.65;100.00
5146;BME280;2591;48.144;15.152;2022-08-16T01:38:40;74443.50;;;-144.65;100.00
5146;BME280;2591;48.144;15.152;2022-08-16T01:41:26;74451.66;;;-144.65;100.00
5146;BME280;2591;48.144;15.152;2022-08-16T01:43:56;74455.72;;;-144.65;100.00
5146;BME280;2591;48.144;15.152;2022-08-16T01:46:32;74451.66;;;-144.65;100.00
5146;BME280;2591;48.144;15.152;2022-08-16T01:49:09;74451.66;;;-144.65;100.00
5146;BME280;2591;48.144;15.152;2022-08-16T01:51:38;74451.66;;;-144.65;100.00
5146;BME280;2591;48.144;15.152;2022-08-16T01:54:09;74449.63;;;-144.65;100.00
5146;BME280;2591;48.144;15.152;2022-08-16T01:56:40;74441.47;;;-144.65;100.00
5146;BME280;2591;48.144;15.152;2022-08-16T01:59:11;74439.44;;;-144.65;100.00
5146;BME280;2591;48.144;15.152;2022-08-16T02:01:43;74443.50;;;-144.65;100.00
5146;BME280;2591;48.144;15.152;2022-08-16T02:04:19;74435.34;;;-144.65;100.00
5146;BME280;2591;48.144;15.152;2022-08-16T02:07:08;74435.34;;;-144.65;100.00
5146;BME280;2591;48.144;15.152;2022-08-16T02:09:38;74441.47;;;-144.65;100.00
5146;BME280;2591;48.144;15.152;2022-08-16T02:12:09;74439.44;;;-144.65;100.00
5146;BME280;2591;48.144;15.152;2022-08-16T02:14:58;74439.44;;;-144.65;100.00
5146;BME280;2591;48.144;15.152;2022-08-16T02:17:26;74451.66;;;-144.65;100.00
5146;BME280;2591;48.144;15.152;2022-08-16T02:19:55;74451.66;;;-144.65;100.00
5146;BME280;2591;48.144;15.152;2022-08-16T02:22:27;74455.72;;;-144.65;100.00
5146;BME280;2591;48.144;15.152;2022-08-16T02:25:06;74455.72;;;-144.65;100.00
5146;BME280;2591;48.144;15.152;2022-08-16T02:27:38;74449.63;;;-144.65;100.00
5146;BME280;2591;48.144;15.152;2022-08-16T02:30:10;74449.63;;;-144.65;100.00
5146;BME280;2591;48.144;15.152;2022-08-16T02:33:00;74449.63;;;-144.65;100.00
5146;BME280;2591;48.144;15.152;2022-08-16T02:35:30;74451.66;;;-144.65;100.00
5146;BME280;2591;48.144;15.152;2022-08-16T02:37:59;74451.66;;;-144.65;100.00
5146;BME280;2591;48.144;15.152;2022-08-16T02:40:35;74453.69;;;-144.65;100.00
5146;BME280;2591;48.144;15.152;2022-08-16T02:43:05;74443.50;;;-144.65;100.00
5146;BME280;2591;48.144;15.152;2022-08-16T02:45:33;74439.44;;;-144.65;100.00
5146;BME280;2591;48.144;15.152;2022-08-16T02:48:02;74439.44;;;-144.65;100.00
5146;BME280;2591;48.144;15.152;2022-08-16T02:50:50;74427.22;;;-144.65;100.00
5146;BME280;2591;48.144;15.152;2022-08-16T02:53:38;74429.25;;;-144.65;100.00
5146;BME280;2591;48.144;15.152;2022-08-16T02:56:09;74425.16;;;-144.65;100.00
5146;BME280;2591;48.144;15.152;2022-08-16T02:58:42;74421.09;;;-144.65;100.00
5146;BME280;2591;48.144;15.152;2022-08-16T03:01:11;74427.22;;;-144.65;100.00
5146;BME280;2591;48.144;15.152;2022-08-16T03:04:01;74427.22;;;-144.65;100.00
5146;BME280;2591;48.144;15.152;2022-08-16T03:06:50;74427.22;;;-144.65;100.00
5146;BME280;2591;48.144;15.152;2022-08-16T03:09:23;74431.28;;;-144.65;100.00
5146;BME280;2591;48.144;15.152;2022-08-16T03:11:58;74435.34;;;-144.65;100.00
5146;BME280;2591;48.144;15.152;2022-08-16T03:14:30;74435.34;;;-144.65;100.00
5146;BME280;2591;48.144;15.152;2022-08-16T03:16:59;74439.44;;;-144.65;100.00
5146;BME280;2591;48.144;15.152;2022-08-16T03:19:29;74443.50;;;-144.65;100.00
5146;BME280;2591;48.144;15.152;2022-08-16T03:22:14;74447.59;;;-144.65;100.00
5146;BME280;2591;48.144;15.152;2022-08-16T03:24:56;74447.59;;;-144.65;100.00
5146;BME280;2591;48.144;15.152;2022-08-16T03:27:28;74447.59;;;-144.65;100.00
5146;BME280;2591;48.144;15.152;2022-08-16T03:30:02;74449.63;;;-144.65;100.00
5146;BME280;2591;48.144;15.152;2022-08-16T03:32:44;74451.66;;;-144.65;100.00
5146;BME280;2591;48.144;15.152;2022-08-16T03:35:14;74451.66;;;-144.65;100.00
5146;BME280;2591;48.144;15.152;2022-08-16T03:37:45;74455.72;;;-144.65;100.00
5146;BME280;2591;48.144;15.152;2022-08-16T03:40:29;74455.72;;;-144.65;100.00
5146;BME280;2591;48.144;15.152;2022-08-16T03:42:59;74459.81;;;-144.65;100.00
5146;BME280;2591;48.144;15.152;2022-08-16T03:45:49;74459.81;;;-144.65;100.00
5146;BME280;2591;48.144;15.152;2022-08-16T03:48:20;74463.88;;;-144.65;100.00
5146;BME280;2591;48.144;15.152;2022-08-16T03:51:08;74463.88;;;-144.65;100.00
5146;BME280;2591;48.144;15.152;2022-08-16T03:53:39;74465.91;;;-144.65;100.00
5146;BME280;2591;48.144;15.152;2022-08-16T03:56:09;74474.06;;;-144.65;100.00
5146;BME280;2591;48.144;15.152;2022-08-16T03:58:47;74476.13;;;-144.65;100.00
5146;BME280;2591;48.144;15.152;2022-08-16T04:01:21;74476.13;;;-144.65;100.00
5146;BME280;2591;48.144;15.152;2022-08-16T04:03:55;74476.13;;;-144.65;100.00
5146;BME280;2591;48.144;15.152;2022-08-16T04:06:23;74480.19;;;-144.65;100.00
5146;BME280;2591;48.144;15.152;2022-08-16T04:08:52;74484.25;;;-144.65;100.00
5146;BME280;2591;48.144;15.152;2022-08-16T04:11:20;74484.25;;;-144.65;100.00
5146;BME280;2591;48.144;15.152;2022-08-16T04:13:50;74488.34;;;-144.65;100.00
5146;BME280;2591;48.144;15.152;2022-08-16T04:16:39;74490.38;;;-144.65;100.00
5146;BME280;2591;48.144;15.152;2022-08-16T04:19:08;74490.38;;;-144.65;100.00
5146;BME280;2591;48.144;15.152;2022-08-16T04:21:36;74496.50;;;-144.65;100.00
5146;BME280;2591;48.144;15.152;2022-08-16T04:24:13;74496.50;;;-144.65;100.00
5146;BME280;2591;48.144;15.152;2022-08-16T04:26:42;74500.56;;;-144.65;100.00
5146;BME280;2591;48.144;15.152;2022-08-16T04:29:12;74502.59;;;-144.65;100.00
5146;BME280;2591;48.144;15.152;2022-08-16T04:31:52;74500.56;;;-144.65;100.00
5146;BME280;2591;48.144;15.152;2022-08-16T04:34:25;74500.56;;;-144.65;100.00
5146;BME280;2591;48.144;15.152;2022-08-16T04:36:54;74500.56;;;-144.65;100.00
5146;BME280;2591;48.144;15.152;2022-08-16T04:39:24;74500.56;;;-144.65;100.00
5146;BME280;2591;48.144;15.152;2022-08-16T04:42:12;74488.34;;;-144.65;100.00
5146;BME280;2591;48.144;15.152;2022-08-16T04:44:40;74480.19;;;-144.65;100.00
5146;BME280;2591;48.144;15.152;2022-08-16T04:47:24;74480.19;;;-144.65;100.00
5146;BME280;2591;48.144;15.152;2022-08-16T04:49:59;74474.06;;;-144.65;100.00
5146;BME280;2591;48.144;15.152;2022-08-16T04:52:27;74467.97;;;-144.65;100.00
5146;BME280;2591;48.144;15.152;2022-08-16T04:55:13;74463.88;;;-144.65;100.00
5146;BME280;2591;48.144;15.152;2022-08-16T04:57:42;74459.81;;;-144.65;100.00
5146;BME280;2591;48.144;15.152;2022-08-16T05:00:12;74463.88;;;-144.65;100.00
5146;BME280;2591;48.144;15.152;2022-08-16T05:03:02;74472.03;;;-144.65;100.00
5146;BME280;2591;48.144;15.152;2022-08-16T05:05:34;74465.91;;;-144.65;100.00
5146;BME280;2591;48.144;15.152;2022-08-16T05:08:11;74465.91;;;-144.65;100.00
5146;BME280;2591;48.144;15.152;2022-08-16T05:10:57;74465.91;;;-144.65;100.00
5146;BME280;2591;48.144;15.152;2022-08-16T05:13:30;74474.06;;;-144.65;100.00
5146;BME280;2591;48.144;15.152;2022-08-16T05:16:12;74467.97;;;-144.65;100.00
5146;BME280;2591;48.144;15.152;2022-08-16T05:18:48;74465.91;;;-144.65;100.00
5146;BME280;2591;48.144;15.152;2022-08-16T05:21:17;74467.97;;;-144.65;100.00
5146;BME280;2591;48.144;15.152;2022-08-16T05:23:47;74467.97;;;-144.65;100.00
5146;BME280;2591;48.144;15.152;2022-08-16T05:26:22;74478.16;;;-144.65;100.00
5146;BME280;2591;48.144;15.152;2022-08-16T05:28:54;74472.03;;;-144.65;100.00
5146;BME280;2591;48.144;15.152;2022-08-16T05:31:24;74474.06;;;-144.65;100.00
5146;BME280;2591;48.144;15.152;2022-08-16T05:33:58;74476.13;;;-144.65;100.00
5146;BME280;2591;48.144;15.152;2022-08-16T05:36:29;74472.03;;;-144.65;100.00
5146;BME280;2591;48.144;15.152;2022-08-16T05:39:04;74470.00;;;-144.65;100.00
5146;BME280;2591;48.144;15.152;2022-08-16T05:41:35;74463.88;;;-144.65;100.00
5146;BME280;2591;48.144;15.152;2022-08-16T05:44:13;74463.88;;;-144.65;100.00
5146;BME280;2591;48.144;15.152;2022-08-16T05:46:51;74455.72;;;-144.65;100.00
5146;BME280;2591;48.144;15.152;2022-08-16T05:49:23;74463.88;;;-144.65;100.00
5146;BME280;2591;48.144;15.152;2022-08-16T05:52:06;74451.66;;;-144.65;100.00
5146;BME280;2591;48.144;15.152;2022-08-16T05:54:37;74449.63;;;-144.65;100.00
5146;BME280;2591;48.144;15.152;2022-08-16T05:57:13;74451.66;;;-144.65;100.00
5146;BME280;2591;48.144;15.152;2022-08-16T05:59:42;74441.47;;;-144.65;100.00
5146;BME280;2591;48.144;15.152;2022-08-16T06:02:11;74435.34;;;-144.65;100.00
5146;BME280;2591;48.144;15.152;2022-08-16T06:04:41;74433.31;;;-144.65;100.00
5146;BME280;2591;48.144;15.152;2022-08-16T06:07:11;74423.13;;;-144.65;100.00
5146;BME280;2591;48.144;15.152;2022-08-16T06:09:52;74421.09;;;-144.65;100.00
5146;BME280;2591;48.144;15.152;2022-08-16T06:12:26;74423.13;;;-144.65;100.00
5146;BME280;2591;48.144;15.152;2022-08-16T06:14:55;74427.22;;;-144.65;100.00
5146;BME280;2591;48.144;15.152;2022-08-16T06:17:26;74419.06;;;-144.65;100.00
5146;BME280;2591;48.144;15.152;2022-08-16T06:20:13;74398.69;;;-144.65;98.28
5146;BME280;2591;48.144;15.152;2022-08-16T06:22:49;74378.28;;;-144.65;98.58
5146;BME280;2591;48.144;15.152;2022-08-16T06:25:30;74370.16;;;-144.65;96.55
5146;BME280;2591;48.144;15.152;2022-08-16T06:28:07;74349.78;;;-144.65;96.46
5146;BME280;2591;48.144;15.152;2022-08-16T06:30:42;74337.53;;;-144.65;93.83
5146;BME280;2591;48.144;15.152;2022-08-16T06:33:12;74319.19;;;-144.65;90.65
5146;BME280;2591;48.144;15.152;2022-08-16T06:35:50;74304.94;;;-144.65;91.61
5146;BME280;2591;48.144;15.152;2022-08-16T06:38:25;74300.88;;;-144.65;88.58
5146;BME280;2591;48.144;15.152;2022-08-16T06:41:02;74292.72;;;-144.65;87.21
5146;BME280;2591;48.144;15.152;2022-08-16T06:43:32;74264.19;;;-144.65;86.62
5146;BME280;2591;48.144;15.152;2022-08-16T06:46:02;74256.03;;;-144.65;88.11
5146;BME280;2591;48.144;15.152;2022-08-16T06:48:31;74256.03;;;-144.65;84.68
5146;BME280;2591;48.144;15.152;2022-08-16T06:51:03;74247.88;;;-144.65;81.43
5146;BME280;2591;48.144;15.152;2022-08-16T06:53:31;74245.84;;;-144.65;81.27
5146;BME280;2591;48.144;15.152;2022-08-16T06:56:03;74235.66;;;-144.65;80.27
5146;BME280;2591;48.144;15.152;2022-08-16T06:58:44;74229.53;;;-144.65;82.85
5146;BME280;2591;48.144;15.152;2022-08-16T07:01:12;74207.13;;;-144.65;82.96
5146;BME280;2591;48.144;15.152;2022-08-16T07:03:42;74178.59;;;-144.65;82.55
5146;BME280;2591;48.144;15.152;2022-08-16T07:06:24;74158.22;;;-144.65;78.06
5146;BME280;2591;48.144;15.152;2022-08-16T07:08:53;74166.38;;;-144.65;79.58
5146;BME280;2591;48.144;15.152;2022-08-16T07:11:23;74162.31;;;-144.65;80.06
5146;BME280;2591;48.144;15.152;2022-08-16T07:14:11;74166.38;;;-144.65;79.87
5146;BME280;2591;48.144;15.152;2022-08-16T07:16:54;74168.41;;;-144.65;77.04
5146;BME280;2591;48.144;15.152;2022-08-16T07:19:24;74162.31;;;-144.65;74.63
5146;BME280;2591;48.144;15.152;2022-08-16T07:22:16;74154.16;;;-144.65;75.69
5146;BME280;2591;48.144;15.152;2022-08-16T07:25:05;74154.16;;;-144.65;71.56
5146;BME280;2591;48.144;15.152;2022-08-16T07:27:34;74154.16;;;-144.65;71.98
5146;BME280;2591;48.144;15.152;2022-08-16T07:30:06;74129.69;;;-144.65;73.42
5146;BME280;2591;48.144;15.152;2022-08-16T07:32:54;74113.41;;;-144.65;74.36
5146;BME280;2591;48.144;15.152;2022-08-16T07:35:23;74093.03;;;-144.65;73.44
5146;BME280;2591;48.144;15.152;2022-08-16T07:37:52;74074.69;;;-144.65;70.58
5146;BME280;2591;48.144;15.152;2022-08-16T07:40:21;74064.50;;;-144.65;71.01
5146;BME280;2591;48.144;15.152;2022-08-16T07:43:09;74056.34;;;-144.65;69.74
5146;BME280;2591;48.144;15.152;2022-08-16T07:45:37;74048.19;;;-144.65;68.87
5146;BME280;2591;48.144;15.152;2022-08-16T07:48:09;74042.09;;;-144.65;68.07
5146;BME280;2591;48.144;15.152;2022-08-16T07:50:39;74040.03;;;-144.65;66.87
5146;BME280;2591;48.144;15.152;2022-08-16T07:53:26;74048.19;;;-144.65;66.82
5146;BME280;2591;48.144;15.152;2022-08-16T07:55:56;74050.22;;;-144.65;67.58
5146;BME280;2591;48.144;15.152;2022-08-16T07:58:27;74052.28;;;-144.65;67.32
5146;BME280;2591;48.144;15.152;2022-08-16T08:01:03;74048.19;;;-144.65;66.45
5146;BME280;2591;48.144;15.152;2022-08-16T08:03:36;74040.03;;;-144.65;66.42
5146;BME280;2591;48.144;15.152;2022-08-16T08:06:09;74040.03;;;-144.65;65.30
5146;BME280;2591;48.144;15.152;2022-08-16T08:08:39;74040.03;;;-144.65;65.17
5146;BME280;2591;48.144;15.152;2022-08-16T08:11:19;74056.34;;;-144.65;65.69
5146;BME280;2591;48.144;15.152;2022-08-16T08:13:51;74050.22;;;-144.65;65.61
5146;BME280;2591;48.144;15.152;2022-08-16T08:16:20;74027.81;;;-144.65;65.90
5146;BME280;2591;48.144;15.152;2022-08-16T08:18:57;74003.38;;;-144.65;67.84
5146;BME280;2591;48.144;15.152;2022-08-16T08:21:30;73970.78;;;-144.65;66.51
5146;BME280;2591;48.144;15.152;2022-08-16T08:24:21;73974.84;;;-144.65;66.03
5146;BME280;2591;48.144;15.152;2022-08-16T08:26:59;73987.06;;;-144.65;66.26
5146;BME280;2591;48.144;15.152;2022-08-16T08:29:28;73983.00;;;-144.65;65.22
5146;BME280;2591;48.144;15.152;2022-08-16T08:32:07;73978.91;;;-144.65;66.31
5146;BME280;2591;48.144;15.152;2022-08-16T08:34:55;73962.63;;;-144.65;66.56
5146;BME280;2591;48.144;15.152;2022-08-16T08:37:30;73946.31;;;-144.65;63.41
5146;BME280;2591;48.144;15.152;2022-08-16T08:40:20;73938.16;;;-144.65;62.60
5146;BME280;2591;48.144;15.152;2022-08-16T08:42:54;73942.25;;;-144.65;63.89
5146;BME280;2591;48.144;15.152;2022-08-16T08:45:26;73921.88;;;-144.65;62.53
5146;BME280;2591;48.144;15.152;2022-08-16T08:48:14;73881.13;;;-144.65;61.10
5146;BME280;2591;48.144;15.152;2022-08-16T08:51:02;73866.84;;;-144.65;61.65
5146;BME280;2591;48.144;15.152;2022-08-16T08:53:30;73848.50;;;-144.65;60.91
5146;BME280;2591;48.144;15.152;2022-08-16T08:56:01;73834.25;;;-144.65;58.01
5146;BME280;2591;48.144;15.152;2022-08-16T08:58:51;73877.03;;;-144.65;57.54
5146;BME280;2591;48.144;15.152;2022-08-16T09:01:31;73897.41;;;-144.65;57.68
5146;BME280;2591;48.144;15.152;2022-08-16T09:04:20;73909.66;;;-144.65;58.50
5146;BME280;2591;48.144;15.152;2022-08-16T09:06:49;73895.38;;;-144.65;57.66
5146;BME280;2591;48.144;15.152;2022-08-16T09:09:19;73897.41;;;-144.65;58.11
5146;BME280;2591;48.144;15.152;2022-08-16T09:11:49;73877.03;;;-144.65;57.70
5146;BME280;2591;48.144;15.152;2022-08-16T09:14:32;73842.41;;;-144.65;56.53
5146;BME280;2591;48.144;15.152;2022-08-16T09:17:01;73850.56;;;-144.65;56.04
5146;BME280;2591;48.144;15.152;2022-08-16T09:19:51;73826.09;;;-144.65;56.63
5146;BME280;2591;48.144;15.152;2022-08-16T09:22:26;73844.44;;;-144.65;57.45
5146;BME280;2591;48.144;15.152;2022-08-16T09:24:56;73830.19;;;-144.65;57.23
5146;BME280;2591;48.144;15.152;2022-08-16T09:27:38;73820.00;;;-144.65;58.76
5146;BME280;2591;48.144;15.152;2022-08-16T09:30:24;73791.47;;;-144.65;57.48
5146;BME280;2591;48.144;15.152;2022-08-16T09:33:03;73797.59;;;-144.65;56.68
5146;BME280;2591;48.144;15.152;2022-08-16T09:35:34;73779.25;;;-144.65;54.99
5146;BME280;2591;48.144;15.152;2022-08-16T09:38:08;73836.28;;;-144.65;57.79
5146;BME280;2591;48.144;15.152;2022-08-16T09:40:59;73832.22;;;-144.65;58.41
5146;BME280;2591;48.144;15.152;2022-08-16T09:43:29;73791.47;;;-144.65;56.79
5146;BME280;2591;48.144;15.152;2022-08-16T09:46:17;73787.41;;;-144.65;56.99
5146;BME280;2591;48.144;15.152;2022-08-16T09:49:06;73767.03;;;-144.65;57.29
5146;BME280;2591;48.144;15.152;2022-08-16T09:51:38;73714.03;;;-144.65;53.88
5146;BME280;2591;48.144;15.152;2022-08-16T09:54:06;73691.63;;;-144.65;54.28
5146;BME280;2591;48.144;15.152;2022-08-16T09:56:43;73677.38;;;-144.65;53.05
5146;BME280;2591;48.144;15.152;2022-08-16T09:59:21;73691.63;;;-144.65;54.21
5146;BME280;2591;48.144;15.152;2022-08-16T10:01:56;73673.31;;;-144.65;54.58
5146;BME280;2591;48.144;15.152;2022-08-16T10:04:24;73618.28;;;-144.65;52.74
5146;BME280;2591;48.144;15.152;2022-08-16T10:07:01;73628.47;;;-144.65;50.94
5146;BME280;2591;48.144;15.152;2022-08-16T10:09:41;73608.09;;;-144.65;50.74
5146;BME280;2591;48.144;15.152;2022-08-16T10:12:23;73591.81;;;-144.65;48.43
5146;BME280;2591;48.144;15.152;2022-08-16T10:15:12;73591.81;;;-144.65;48.80
5146;BME280;2591;48.144;15.152;2022-08-16T10:17:44;73557.16;;;-144.65;49.26
5146;BME280;2591;48.144;15.152;2022-08-16T10:20:29;73551.06;;;-144.65;47.34
5146;BME280;2591;48.144;15.152;2022-08-16T10:23:00;73571.44;;;-144.65;48.27
5146;BME280;2591;48.144;15.152;2022-08-16T10:25:35;73542.91;;;-144.65;47.15
5146;BME280;2591;48.144;15.152;2022-08-16T10:28:26;73542.91;;;-144.65;47.30
5146;BME280;2591;48.144;15.152;2022-08-16T10:31:07;73528.66;;;-144.65;49.18
5146;BME280;2591;48.144;15.152;2022-08-16T10:33:44;73434.94;;;-144.65;48.02
5146;BME280;2591;48.144;15.152;2022-08-16T10:36:13;73365.69;;;-144.65;45.60
5146;BME280;2591;48.144;15.152;2022-08-16T10:39:03;73388.09;;;-144.65;46.27
5146;BME280;2591;48.144;15.152;2022-08-16T10:41:34;73402.34;;;-144.65;45.37
5146;BME280;2591;48.144;15.152;2022-08-16T10:44:03;73384.00;;;-144.65;42.92
5146;BME280;2591;48.144;15.152;2022-08-16T10:46:36;73373.81;;;-144.65;42.66
5146;BME280;2591;48.144;15.152;2022-08-16T10:49:09;73412.53;;;-144.65;43.13
5146;BME280;2591;48.144;15.152;2022-08-16T10:51:38;73420.69;;;-144.65;43.30
5146;BME280;2591;48.144;15.152;2022-08-16T10:54:26;73441.06;;;-144.65;44.21
5146;BME280;2591;48.144;15.152;2022-08-16T10:56:56;73416.59;;;-144.65;45.21
5146;BME280;2591;48.144;15.152;2022-08-16T10:59:25;73318.81;;;-144.65;43.30
5146;BME280;2591;48.144;15.152;2022-08-16T11:02:14;73314.75;;;-144.65;43.41
5146;BME280;2591;48.144;15.152;2022-08-16T11:05:05;73329.00;;;-144.65;42.64
5146;BME280;2591;48.144;15.152;2022-08-16T11:07:42;73381.97;;;-144.65;45.70
5146;BME280;2591;48.144;15.152;2022-08-16T11:10:25;73292.34;;;-144.65;43.11
5146;BME280;2591;48.144;15.152;2022-08-16T11:13:13;73271.97;;;-144.65;41.92
5146;BME280;2591;48.144;15.152;2022-08-16T11:16:04;73269.94;;;-144.65;42.78
5146;BME280;2591;48.144;15.152;2022-08-16T11:18:54;73208.81;;;-144.65;41.90
5146;BME280;2591;48.144;15.152;2022-08-16T11:21:30;73190.47;;;-144.65;41.06
5146;BME280;2591;48.144;15.152;2022-08-16T11:24:00;73184.38;;;-144.65;41.21
5146;BME280;2591;48.144;15.152;2022-08-16T11:26:50;73143.63;;;-144.65;40.47
5146;BME280;2591;48.144;15.152;2022-08-16T11:29:39;73086.59;;;-144.65;38.17
5146;BME280;2591;48.144;15.152;2022-08-16T11:32:08;73088.63;;;-144.65;38.20
5146;BME280;2591;48.144;15.152;2022-08-16T11:34:38;73098.81;;;-144.65;38.79
5146;BME280;2591;48.144;15.152;2022-08-16T11:37:26;73078.44;;;-144.65;38.24
5146;BME280;2591;48.144;15.152;2022-08-16T11:40:15;73078.44;;;-144.65;38.15
5146;BME280;2591;48.144;15.152;2022-08-16T11:42:58;73125.28;;;-144.65;37.64
5146;BME280;2591;48.144;15.152;2022-08-16T11:45:30;73225.13;;;-144.65;39.43
5146;BME280;2591;48.144;15.152;2022-08-16T11:48:01;73233.25;;;-144.65;41.07
5146;BME280;2591;48.144;15.152;2022-08-16T11:50:30;73161.97;;;-144.65;40.20
5146;BME280;2591;48.144;15.152;2022-08-16T11:53:00;73115.13;;;-144.65;39.54
5146;BME280;2591;48.144;15.152;2022-08-16T11:55:30;73157.88;;;-144.65;40.24
5146;BME280;2591;48.144;15.152;2022-08-16T11:57:58;73121.22;;;-144.65;38.28
5146;BME280;2591;48.144;15.152;2022-08-16T12:00:28;73111.03;;;-144.65;39.04
5146;BME280;2591;48.144;15.152;2022-08-16T12:03:17;73070.28;;;-144.65;38.42
5146;BME280;2591;48.144;15.152;2022-08-16T12:05:59;73078.44;;;-144.65;38.60
5146;BME280;2591;48.144;15.152;2022-08-16T12:08:30;73070.28;;;-144.65;37.10
5146;BME280;2591;48.144;15.152;2022-08-16T12:10:59;73090.66;;;-144.65;38.27
5146;BME280;2591;48.144;15.152;2022-08-16T12:13:28;73076.41;;;-144.65;38.68
5146;BME280;2591;48.144;15.152;2022-08-16T12:15:56;73068.25;;;-144.65;38.65
5146;BME280;2591;48.144;15.152;2022-08-16T12:18:24;73078.44;;;-144.65;38.40
5146;BME280;2591;48.144;15.152;2022-08-16T12:20:53;73102.88;;;-144.65;37.83
5146;BME280;2591;48.144;15.152;2022-08-16T12:23:25;73137.53;;;-144.65;38.89
5146;BME280;2591;48.144;15.152;2022-08-16T12:25:57;73111.03;;;-144.65;38.19
5146;BME280;2591;48.144;15.152;2022-08-16T12:28:25;73129.38;;;-144.65;38.03
5146;BME280;2591;48.144;15.152;2022-08-16T12:31:13;73094.75;;;-144.65;37.86
5146;BME280;2591;48.144;15.152;2022-08-16T12:33:42;73066.22;;;-144.65;38.07
5146;BME280;2591;48.144;15.152;2022-08-16T12:36:11;73015.31;;;-144.65;36.95
5146;BME280;2591;48.144;15.152;2022-08-16T12:38:41;73013.25;;;-144.65;37.07
5146;BME280;2591;48.144;15.152;2022-08-16T12:41:15;72986.78;;;-144.65;36.79
5146;BME280;2591;48.144;15.152;2022-08-16T12:43:52;72958.25;;;-144.65;36.68
5146;BME280;2591;48.144;15.152;2022-08-16T12:46:27;72964.38;;;-144.65;36.14
5146;BME280;2591;48.144;15.152;2022-08-16T12:48:57;73025.47;;;-144.65;36.80
5146;BME280;2591;48.144;15.152;2022-08-16T12:51:27;73035.66;;;-144.65;36.66
5146;BME280;2591;48.144;15.152;2022-08-16T12:54:21;73102.88;;;-144.65;37.65
5146;BME280;2591;48.144;15.152;2022-08-16T12:56:49;73100.84;;;-144.65;37.34
5146;BME280;2591;48.144;15.152;2022-08-16T12:59:18;73102.88;;;-144.65;38.20
5146;BME280;2591;48.144;15.152;2022-08-16T13:01:49;73109.00;;;-144.65;38.36
5146;BME280;2591;48.144;15.152;2022-08-16T13:04:25;73106.97;;;-144.65;38.22
5146;BME280;2591;48.144;15.152;2022-08-16T13:06:59;73049.94;;;-144.65;37.62
5146;BME280;2591;48.144;15.152;2022-08-16T13:09:30;73070.28;;;-144.65;37.78
5146;BME280;2591;48.144;15.152;2022-08-16T13:12:09;73076.41;;;-144.65;38.46
5146;BME280;2591;48.144;15.152;2022-08-16T13:14:47;73062.16;;;-144.65;37.85
5146;BME280;2591;48.144;15.152;2022-08-16T13:17:18;73082.53;;;-144.65;38.75
5146;BME280;2591;48.144;15.152;2022-08-16T13:19:49;73070.28;;;-144.65;38.13
5146;BME280;2591;48.144;15.152;2022-08-16T13:22:39;73047.88;;;-144.65;38.66
5146;BME280;2591;48.144;15.152;2022-08-16T13:25:12;73033.63;;;-144.65;38.30
5146;BME280;2591;48.144;15.152;2022-08-16T13:27:47;73019.38;;;-144.65;38.23